createdAt,value
2022-10-13T00:00:06.874Z,18.88
2022-10-13T00:05:13.923Z,18.88
2022-10-13T00:10:15.755Z,19.42
2022-10-13T00:15:17.956Z,19.33
2022-10-13T00:20:19.857Z,21.17
2022-10-13T00:25:21.679Z,22.95
2022-10-13T00:30:24.296Z,23.98
2022-10-13T00:35:26.064Z,23.33
2022-10-13T00:40:27.802Z,21.25
2022-10-13T00:45:29.737Z,21.15
2022-10-13T00:50:39.484Z,22.02
2022-10-13T00:55:43.231Z,20.55
2022-10-13T01:00:50.862Z,20.73
2022-10-13T01:05:56.863Z,17.90
2022-10-13T01:11:36.077Z,19.90
2022-10-13T01:16:43.878Z,20.73
2022-10-13T01:21:54.692Z,17.48
2022-10-13T01:27:10.389Z,15.98
2022-10-13T01:32:24.261Z,15.43
2022-10-13T01:37:36.938Z,15.07
2022-10-13T01:43:08.464Z,15.48
2022-10-13T01:48:11.072Z,16.38
2022-10-13T01:53:18.217Z,17.48
2022-10-13T01:58:30.091Z,16.45
2022-10-13T02:03:51.941Z,15.60
2022-10-13T02:09:05.831Z,16.65
2022-10-13T02:14:33.718Z,16.33
2022-10-13T02:19:38.637Z,16.77
2022-10-13T02:24:40.578Z,15.50
2022-10-13T02:29:54.094Z,15.35
2022-10-13T02:34:55.844Z,15.65
2022-10-13T02:39:57.598Z,15.55
2022-10-13T02:44:59.336Z,14.52
2022-10-13T02:50:01.109Z,15.55
2022-10-13T02:55:03.892Z,17.42
2022-10-13T03:00:07.293Z,17.17
2022-10-13T03:05:10.384Z,15.52
2022-10-13T03:10:12.145Z,16.63
2022-10-13T03:15:14.133Z,16.73
2022-10-13T03:20:16.453Z,15.13
2022-10-13T03:25:18.278Z,15.07
2022-10-13T03:30:20.013Z,14.80
2022-10-13T03:35:21.923Z,15.38
2022-10-13T03:40:24.671Z,13.27
2022-10-13T03:45:26.419Z,14.07
2022-10-13T03:50:28.199Z,14.88
2022-10-13T03:55:29.952Z,15.63
2022-10-13T04:00:31.669Z,16.20
2022-10-13T04:05:34.448Z,15.25
2022-10-13T04:10:36.240Z,14.90
2022-10-13T04:15:39.435Z,15.75
2022-10-13T04:20:41.203Z,14.48
2022-10-13T04:25:42.932Z,14.90
2022-10-13T04:30:49.257Z,15.23
2022-10-13T04:35:51.380Z,15.98
2022-10-13T04:40:53.085Z,15.85
2022-10-13T04:46:04.248Z,15.32
2022-10-13T04:51:09.051Z,15.52
2022-10-13T04:56:16.569Z,15.85
2022-10-13T05:01:22.451Z,16.67
2022-10-13T05:06:27.432Z,15.65
2022-10-13T05:11:33.125Z,15.77
2022-10-13T05:16:34.918Z,15.98
2022-10-13T05:21:36.688Z,18.70
2022-10-13T05:26:38.534Z,19.30
2022-10-13T05:31:40.304Z,18.20
2022-10-13T05:36:42.296Z,19.98
2022-10-13T05:41:44.230Z,18.95
2022-10-13T05:46:48.359Z,22.50
2022-10-13T05:51:55.548Z,22.13
2022-10-13T05:57:19.698Z,22.33
2022-10-13T06:02:24.955Z,19.52
2022-10-13T06:07:26.747Z,22.48
2022-10-13T06:12:28.488Z,23.95
2022-10-13T06:17:30.256Z,24.58
2022-10-13T06:22:33.441Z,28.25
2022-10-13T06:27:35.197Z,26.25
2022-10-13T06:32:36.941Z,25.15
2022-10-13T06:37:38.678Z,24.90
2022-10-13T06:42:49.813Z,26.50
2022-10-13T06:47:54.446Z,26.08
2022-10-13T06:52:56.915Z,23.20
2022-10-13T06:57:58.638Z,24.10
2022-10-13T07:03:00.440Z,23.00
2022-10-13T07:08:02.481Z,23.65
2022-10-13T07:13:04.433Z,23.75
2022-10-13T07:18:06.797Z,23.48
2022-10-13T07:23:08.945Z,22.58
2022-10-13T07:28:10.690Z,21.65
2022-10-13T07:33:12.818Z,21.00
2022-10-13T07:38:14.584Z,25.52
2022-10-13T07:43:17.613Z,27.58
2022-10-13T07:48:19.456Z,27.77
2022-10-13T07:53:21.257Z,26.00
2022-10-13T07:58:23.096Z,26.52
2022-10-13T08:03:25.110Z,25.45
2022-10-13T08:08:27.465Z,23.60
2022-10-13T08:13:29.280Z,23.80
2022-10-13T08:18:31.445Z,23.65
2022-10-13T08:23:33.261Z,24.05
2022-10-13T08:28:35.133Z,23.98
2022-10-13T08:33:37.020Z,23.38
2022-10-13T08:38:41.047Z,23.10
2022-10-13T08:44:24.714Z,22.40
2022-10-13T08:49:10.012Z,22.13
2022-10-13T08:54:16.834Z,21.10
2022-10-13T08:59:19.047Z,20.98
2022-10-13T09:04:40.890Z,20.48
2022-10-13T09:09:43.146Z,19.13
2022-10-13T09:14:59.475Z,19.20
2022-10-13T09:20:06.390Z,18.35
2022-10-13T09:25:08.687Z,17.80
2022-10-13T09:30:46.962Z,17.08
2022-10-13T09:35:56.211Z,17.20
2022-10-13T09:41:10.168Z,17.25
2022-10-13T09:46:23.054Z,17.80
2022-10-13T09:51:33.977Z,17.02
2022-10-13T09:56:53.514Z,17.67
2022-10-13T10:01:58.548Z,17.20
2022-10-13T10:07:02.311Z,17.85
2022-10-13T10:12:05.458Z,15.50
2022-10-13T10:17:32.748Z,17.63
2022-10-13T10:22:44.432Z,17.73
2022-10-13T10:28:03.627Z,16.33
2022-10-13T10:33:18.936Z,17.13
2022-10-13T10:38:33.122Z,16.50
2022-10-13T10:43:50.990Z,15.65
2022-10-13T10:48:57.579Z,16.75
2022-10-13T10:54:09.748Z,17.00
2022-10-13T10:59:11.595Z,16.75
2022-10-13T11:04:38.992Z,19.08
2022-10-13T11:09:43.899Z,18.15
2022-10-13T11:15:24.293Z,17.45
2022-10-13T11:20:26.152Z,18.98
2022-10-13T11:25:35.703Z,19.58
2022-10-13T11:30:47.589Z,18.20
2022-10-13T11:35:50.780Z,17.55
2022-10-13T11:41:17.170Z,18.42
2022-10-13T11:46:36.423Z,18.90
2022-10-13T11:51:46.907Z,19.75
2022-10-13T11:56:54.674Z,20.13
2022-10-13T12:02:14.524Z,19.30
2022-10-13T12:07:22.244Z,19.63
2022-10-13T12:12:25.003Z,19.88
2022-10-13T12:17:27.487Z,20.20
2022-10-13T12:22:30.228Z,20.13
2022-10-13T12:27:42.493Z,20.70
2022-10-13T12:32:50.392Z,20.08
2022-10-13T12:37:54.016Z,19.25
2022-10-13T12:42:56.229Z,20.08
2022-10-13T12:47:58.246Z,20.20
2022-10-13T12:53:03.079Z,20.73
2022-10-13T12:58:04.895Z,21.42
2022-10-13T13:03:07.118Z,20.77
2022-10-13T13:08:31.843Z,21.70
2022-10-13T13:13:34.018Z,21.13
2022-10-13T13:18:41.625Z,21.20
2022-10-13T13:23:51.038Z,22.40
2022-10-13T13:28:57.007Z,20.67
2022-10-13T13:33:58.824Z,22.33
2022-10-13T13:39:00.664Z,20.25
2022-10-13T13:44:02.591Z,21.40
2022-10-13T13:49:04.451Z,21.15
2022-10-13T13:54:06.458Z,21.77
2022-10-13T13:59:08.281Z,21.23
2022-10-13T14:04:10.225Z,21.27
2022-10-13T14:09:11.981Z,22.05
2022-10-13T14:14:13.922Z,22.00
2022-10-13T14:19:15.685Z,21.92
2022-10-13T14:24:17.498Z,21.83
2022-10-13T14:29:19.567Z,19.67
2022-10-13T14:34:21.720Z,20.73
2022-10-13T14:39:23.485Z,20.92
2022-10-13T14:44:25.258Z,21.65
2022-10-13T14:49:27.053Z,21.80
2022-10-13T14:54:28.835Z,21.42
2022-10-13T14:59:30.784Z,19.98
2022-10-13T15:04:32.592Z,20.95
2022-10-13T15:09:45.476Z,21.30
2022-10-13T15:14:55.167Z,21.95
2022-10-13T15:19:56.935Z,20.85
2022-10-13T15:24:58.801Z,20.50
2022-10-13T15:30:00.785Z,20.02
2022-10-13T15:35:02.531Z,19.45
2022-10-13T15:40:05.399Z,19.77
2022-10-13T15:45:10.387Z,20.35
2022-10-13T15:50:12.734Z,18.05
2022-10-13T15:55:14.616Z,18.55
2022-10-13T16:00:16.736Z,18.20
2022-10-13T16:05:19.774Z,17.23
2022-10-13T16:10:21.520Z,18.08
2022-10-13T16:15:23.309Z,18.40
2022-10-13T16:20:25.305Z,16.17
2022-10-13T16:25:27.284Z,15.55
2022-10-13T16:30:30.489Z,14.50
2022-10-13T16:35:32.352Z,13.70
2022-10-13T16:40:37.207Z,14.45
2022-10-13T16:45:58.685Z,15.00
2022-10-13T16:51:06.108Z,13.68
2022-10-13T16:56:08.697Z,13.57
2022-10-13T17:01:11.538Z,13.70
2022-10-13T17:06:14.651Z,14.88
2022-10-13T17:11:22.901Z,16.75
2022-10-13T17:16:25.080Z,19.17
2022-10-13T17:21:26.848Z,17.65
2022-10-13T17:26:28.649Z,19.00
2022-10-13T17:31:30.560Z,18.90
2022-10-13T17:36:34.157Z,18.52
2022-10-13T17:41:43.709Z,18.88
2022-10-13T17:46:45.445Z,19.20
2022-10-13T17:51:51.544Z,18.20
2022-10-13T17:56:55.294Z,17.70
2022-10-13T18:01:57.090Z,16.77
2022-10-13T18:06:58.919Z,18.52
2022-10-13T18:12:00.701Z,18.38
2022-10-13T18:17:02.459Z,17.95
2022-10-13T18:22:04.214Z,17.33
2022-10-13T18:27:06.069Z,17.50
2022-10-13T18:32:10.414Z,19.13
2022-10-13T18:37:12.159Z,18.60
2022-10-13T18:42:13.923Z,19.80
2022-10-13T18:47:15.652Z,20.10
2022-10-13T18:52:17.687Z,24.30
2022-10-13T18:57:19.736Z,27.58
2022-10-13T19:02:23.075Z,24.20
2022-10-13T19:07:24.872Z,23.73
2022-10-13T19:12:27.687Z,23.65
2022-10-13T19:17:29.484Z,25.83
2022-10-13T19:22:31.262Z,24.67
2022-10-13T19:27:33.540Z,41.30
2022-10-13T19:32:35.363Z,36.65
2022-10-13T19:37:39.451Z,28.67
2022-10-13T19:42:41.339Z,27.33
2022-10-13T19:47:43.090Z,26.65
2022-10-13T19:52:44.849Z,25.02
2022-10-13T19:57:46.652Z,24.25
2022-10-13T20:02:48.386Z,24.58
2022-10-13T20:07:50.125Z,23.63
2022-10-13T20:12:51.863Z,23.90
2022-10-13T20:17:53.629Z,22.55
2022-10-13T20:22:55.580Z,23.10
2022-10-13T20:27:57.390Z,23.45
2022-10-13T20:32:59.349Z,23.30
2022-10-13T20:38:01.109Z,23.38
2022-10-13T20:43:02.997Z,23.58
2022-10-13T20:48:07.869Z,23.77
2022-10-13T20:53:09.613Z,23.05
2022-10-13T20:58:11.360Z,23.42
2022-10-13T21:03:13.079Z,23.65
2022-10-13T21:08:15.965Z,22.02
2022-10-13T21:13:17.871Z,21.52
2022-10-13T21:18:19.644Z,22.67
2022-10-13T21:23:21.387Z,22.40
2022-10-13T21:28:23.262Z,22.77
2022-10-13T21:33:27.220Z,19.17
2022-10-13T21:38:29.118Z,19.08
2022-10-13T21:43:30.894Z,18.80
2022-10-13T21:48:32.673Z,18.58
2022-10-13T21:53:34.461Z,19.92
2022-10-13T21:58:36.217Z,19.05
2022-10-13T22:03:38.114Z,19.20
2022-10-13T22:08:41.320Z,19.95
2022-10-13T22:13:48.855Z,21.65
2022-10-13T22:18:55.877Z,21.10
2022-10-13T22:24:00.181Z,19.73
2022-10-13T22:29:03.957Z,19.85
2022-10-13T22:34:06.085Z,19.25
2022-10-13T22:39:07.935Z,19.75
2022-10-13T22:44:10.496Z,19.25
2022-10-13T22:49:13.351Z,20.45
2022-10-13T22:54:14.955Z,20.38
2022-10-13T22:59:16.526Z,19.40
2022-10-13T23:04:18.061Z,19.95
2022-10-13T23:09:19.621Z,20.48
2022-10-13T23:14:21.274Z,19.30
2022-10-13T23:19:22.907Z,20.15
2022-10-13T23:24:24.537Z,18.90
2022-10-13T23:29:27.290Z,19.77
2022-10-13T23:34:29.233Z,20.60
2022-10-13T23:39:31.279Z,18.75
2022-10-13T23:44:32.815Z,20.23
2022-10-13T23:49:34.341Z,20.02
2022-10-13T23:54:35.974Z,21.45
2022-10-13T23:59:37.602Z,21.50
